createdAt,value
2016-04-26T00:00:08.654Z,992.16
2016-04-26T00:01:09.140Z,992.1
2016-04-26T00:02:08.597Z,992.08
2016-04-26T00:03:08.567Z,992.07
2016-04-26T00:04:08.539Z,992.06
2016-04-26T00:05:08.526Z,992.04
2016-04-26T00:06:08.471Z,992.02
2016-04-26T00:07:08.442Z,992.04
2016-04-26T00:08:08.413Z,991.93
2016-04-26T00:09:08.384Z,992.01
2016-04-26T00:10:08.356Z,991.98
2016-04-26T00:11:08.328Z,991.96
2016-04-26T00:12:08.283Z,991.96
2016-04-26T00:13:08.254Z,992.03
2016-04-26T00:14:08.226Z,991.99
2016-04-26T00:15:08.198Z,992.01
2016-04-26T00:16:08.169Z,991.99
2016-04-26T00:17:08.140Z,992.01
2016-04-26T00:18:08.112Z,991.97
2016-04-26T00:19:08.068Z,991.99
2016-04-26T00:20:08.039Z,992.01
2016-04-26T00:21:08.011Z,991.96
2016-04-26T00:22:07.982Z,991.95
2016-04-26T00:23:07.953Z,991.99
2016-04-26T00:24:07.941Z,991.98
2016-04-26T00:25:07.897Z,991.98
2016-04-26T00:26:07.868Z,991.95
2016-04-26T00:27:07.824Z,991.98
2016-04-26T00:28:07.795Z,992
2016-04-26T00:29:07.766Z,991.99
2016-04-26T00:30:07.738Z,991.97
2016-04-26T00:31:07.710Z,991.96
2016-04-26T00:32:07.681Z,991.92
2016-04-26T00:33:07.652Z,991.93
2016-04-26T00:34:07.624Z,991.95
2016-04-26T00:35:07.579Z,991.95
2016-04-26T00:36:07.566Z,991.9
2016-04-26T00:37:07.523Z,991.87
2016-04-26T00:38:07.494Z,991.91
2016-04-26T00:39:07.465Z,991.88
2016-04-26T00:40:07.437Z,991.87
2016-04-26T00:41:07.409Z,991.92
2016-04-26T00:42:07.364Z,991.87
2016-04-26T00:43:07.335Z,991.86
2016-04-26T00:44:07.306Z,991.89
2016-04-26T00:45:07.278Z,991.83
2016-04-26T00:46:07.250Z,991.83
2016-04-26T00:47:07.220Z,991.79
2016-04-26T00:48:07.193Z,991.79
2016-04-26T00:49:07.148Z,991.78
2016-04-26T00:50:07.119Z,991.79
2016-04-26T00:51:07.092Z,991.8
2016-04-26T00:52:07.063Z,991.79
2016-04-26T00:53:07.034Z,991.79
2016-04-26T00:54:07.006Z,991.8
2016-04-26T00:55:06.977Z,991.79
2016-04-26T00:56:06.949Z,991.81
2016-04-26T00:57:06.904Z,991.82
2016-04-26T00:58:06.875Z,991.8
2016-04-26T00:59:06.847Z,991.79
2016-04-26T01:00:06.819Z,991.81
2016-04-26T01:01:06.790Z,991.79
2016-04-26T01:02:07.277Z,991.78
2016-04-26T01:03:06.732Z,991.79
2016-04-26T01:04:06.689Z,991.79
2016-04-26T01:05:06.661Z,991.76
2016-04-26T01:06:06.632Z,991.8
2016-04-26T01:07:06.604Z,991.72
2016-04-26T01:08:06.574Z,991.74
2016-04-26T01:09:06.546Z,991.74
2016-04-26T01:10:06.501Z,991.69
2016-04-26T01:11:06.474Z,991.71
2016-04-26T01:12:06.445Z,991.74
2016-04-26T01:13:06.415Z,991.76
2016-04-26T01:14:06.388Z,991.75
2016-04-26T01:15:06.359Z,991.75
2016-04-26T01:16:06.315Z,991.75
2016-04-26T01:17:06.318Z,991.74
2016-04-26T01:18:06.258Z,991.72
2016-04-26T01:19:06.229Z,991.7
2016-04-26T01:20:06.201Z,991.73
2016-04-26T01:21:06.172Z,991.7
2016-04-26T01:22:06.127Z,991.71
2016-04-26T01:23:06.100Z,991.73
2016-04-26T01:24:06.070Z,991.75
2016-04-26T01:25:06.042Z,991.76
2016-04-26T01:26:06.014Z,991.74
2016-04-26T01:27:05.985Z,991.76
2016-04-26T01:28:05.941Z,991.74
2016-04-26T01:29:05.913Z,991.77
2016-04-26T01:30:05.884Z,991.76
2016-04-26T01:31:05.855Z,991.75
2016-04-26T01:32:05.827Z,991.76
2016-04-26T01:33:05.782Z,991.71
2016-04-26T01:34:05.769Z,991.67
2016-04-26T01:35:05.725Z,991.68
2016-04-26T01:36:05.697Z,991.71
2016-04-26T01:37:05.668Z,991.69
2016-04-26T01:38:05.640Z,991.65
2016-04-26T01:39:05.596Z,991.6
2016-04-26T01:40:05.568Z,991.6
2016-04-26T01:41:05.538Z,991.55
2016-04-26T01:42:05.509Z,991.57
2016-04-26T01:43:05.482Z,991.58
2016-04-26T01:44:05.453Z,991.56
2016-04-26T01:45:05.409Z,991.54
2016-04-26T01:46:05.379Z,991.49
2016-04-26T01:47:06.430Z,991.5
2016-04-26T01:48:05.323Z,991.48
2016-04-26T01:49:05.294Z,991.49
2016-04-26T01:50:05.265Z,991.47
2016-04-26T01:51:05.222Z,991.52
2016-04-26T01:52:05.192Z,991.47
2016-04-26T01:53:05.165Z,991.48
2016-04-26T01:54:05.136Z,991.53
2016-04-26T01:55:05.107Z,991.55
2016-04-26T01:56:05.064Z,991.55
2016-04-26T01:57:05.034Z,991.57
2016-04-26T01:58:05.005Z,991.52
2016-04-26T01:59:04.978Z,991.53
2016-04-26T02:00:04.949Z,991.57
2016-04-26T02:01:04.905Z,991.55
2016-04-26T02:02:04.877Z,991.54
2016-04-26T02:03:04.847Z,991.49
2016-04-26T02:04:04.819Z,991.49
2016-04-26T02:05:04.791Z,991.47
2016-04-26T02:06:04.746Z,991.52
2016-04-26T02:07:04.719Z,991.52
2016-04-26T02:08:04.689Z,991.51
2016-04-26T02:09:04.660Z,991.49
2016-04-26T02:10:04.633Z,991.41
2016-04-26T02:11:04.588Z,991.43
2016-04-26T02:12:04.559Z,991.43
2016-04-26T02:13:04.531Z,991.43
2016-04-26T02:14:04.502Z,991.37
2016-04-26T02:15:04.473Z,991.37
2016-04-26T02:16:04.445Z,991.35
2016-04-26T02:17:04.401Z,991.38
2016-04-26T02:18:04.373Z,991.38
2016-04-26T02:19:04.343Z,991.41
2016-04-26T02:20:04.315Z,991.38
2016-04-26T02:21:04.271Z,991.4
2016-04-26T02:22:04.242Z,991.39
2016-04-26T02:23:04.221Z,991.41
2016-04-26T02:24:04.177Z,991.41
2016-04-26T02:25:04.149Z,991.43
2016-04-26T02:26:04.119Z,991.44
2016-04-26T02:27:04.091Z,991.42
2016-04-26T02:28:04.063Z,991.44
2016-04-26T02:29:04.018Z,991.39
2016-04-26T02:30:03.990Z,991.4
2016-04-26T02:31:03.960Z,991.38
2016-04-26T02:32:05.277Z,991.36
2016-04-26T02:33:03.904Z,991.35
2016-04-26T02:34:03.875Z,991.32
2016-04-26T02:35:03.846Z,991.34
2016-04-26T02:36:03.803Z,991.27
2016-04-26T02:37:03.774Z,991.33
2016-04-26T02:38:03.745Z,991.32
2016-04-26T02:39:03.702Z,991.28
2016-04-26T02:40:03.673Z,991.26
2016-04-26T02:41:03.645Z,991.27
2016-04-26T02:42:03.615Z,991.29
2016-04-26T02:43:03.586Z,991.25
2016-04-26T02:44:03.559Z,991.29
2016-04-26T02:45:03.531Z,991.26
2016-04-26T02:46:03.486Z,991.24
2016-04-26T02:47:03.457Z,991.29
2016-04-26T02:48:03.429Z,991.23
2016-04-26T02:49:03.400Z,991.22
2016-04-26T02:50:03.371Z,991.23
2016-04-26T02:51:03.327Z,991.23
2016-04-26T02:52:03.300Z,991.17
2016-04-26T02:53:03.270Z,991.18
2016-04-26T02:54:03.241Z,991.13
2016-04-26T02:55:03.214Z,991.16
2016-04-26T02:56:03.168Z,991.17
2016-04-26T02:57:03.141Z,991.12
2016-04-26T02:58:03.112Z,991.15
2016-04-26T02:59:03.083Z,991.12
2016-04-26T03:00:03.055Z,991.13
2016-04-26T03:01:03.011Z,991.12
2016-04-26T03:02:03.029Z,991.05
2016-04-26T03:03:02.953Z,991.08
2016-04-26T03:04:02.925Z,991.06
2016-04-26T03:05:02.896Z,991
2016-04-26T03:06:02.852Z,991.02
2016-04-26T03:07:02.823Z,990.98
2016-04-26T03:08:02.795Z,990.99
2016-04-26T03:09:02.767Z,990.98
2016-04-26T03:10:02.737Z,990.97
2016-04-26T03:11:02.693Z,990.96
2016-04-26T03:12:02.665Z,990.96
2016-04-26T03:13:02.637Z,990.92
2016-04-26T03:14:02.608Z,990.94
2016-04-26T03:15:02.564Z,990.9
2016-04-26T03:16:02.535Z,990.89
2016-04-26T03:17:02.508Z,990.88
2016-04-26T03:18:02.479Z,990.85
2016-04-26T03:19:02.451Z,990.86
2016-04-26T03:20:02.406Z,990.86
2016-04-26T03:21:02.378Z,990.86
2016-04-26T03:22:02.349Z,990.82
2016-04-26T03:23:02.320Z,990.83
2016-04-26T03:24:02.308Z,990.82
2016-04-26T03:25:02.264Z,990.74
2016-04-26T03:26:02.220Z,990.75
2016-04-26T03:27:02.191Z,990.74
2016-04-26T03:28:02.162Z,990.7
2016-04-26T03:29:02.134Z,990.66
2016-04-26T03:30:02.089Z,990.65
2016-04-26T03:31:02.061Z,990.62
2016-04-26T03:32:02.033Z,990.63
2016-04-26T03:33:02.003Z,990.6
2016-04-26T03:34:01.975Z,990.59
2016-04-26T03:35:01.931Z,990.52
2016-04-26T03:36:01.902Z,990.49
2016-04-26T03:37:01.874Z,990.45
2016-04-26T03:38:01.861Z,990.49
2016-04-26T03:39:01.817Z,990.53
2016-04-26T03:40:01.788Z,990.53
2016-04-26T03:41:01.744Z,990.56
2016-04-26T03:42:01.716Z,990.57
2016-04-26T03:43:01.687Z,990.5
2016-04-26T03:44:01.643Z,990.46
2016-04-26T03:45:01.614Z,990.38
2016-04-26T03:46:01.586Z,990.51
2016-04-26T03:47:01.557Z,990.53
2016-04-26T03:48:01.528Z,990.59
2016-04-26T03:49:01.501Z,990.57
2016-04-26T03:50:01.456Z,990.53
2016-04-26T03:51:01.427Z,990.56
2016-04-26T03:52:01.399Z,990.56
2016-04-26T03:53:01.370Z,990.51
2016-04-26T03:54:01.326Z,990.55
2016-04-26T03:55:01.312Z,990.55
2016-04-26T03:56:01.269Z,990.51
2016-04-26T03:57:01.240Z,990.44
2016-04-26T03:58:01.195Z,990.54
2016-04-26T03:59:01.168Z,990.51
2016-04-26T04:00:01.139Z,990.47
2016-04-26T04:01:01.110Z,990.39
2016-04-26T04:02:01.082Z,990.4
2016-04-26T04:03:01.038Z,990.4
2016-04-26T04:04:01.008Z,990.36
2016-04-26T04:05:00.981Z,990.33
2016-04-26T04:06:00.952Z,990.33
2016-04-26T04:07:00.924Z,990.29
2016-04-26T04:08:00.895Z,990.27
2016-04-26T04:09:00.850Z,990.2
2016-04-26T04:10:00.816Z,990.28
2016-04-26T04:11:00.788Z,990.25
2016-04-26T04:12:00.759Z,990.24
2016-04-26T04:13:00.731Z,990.24
2016-04-26T04:14:00.702Z,990.18
2016-04-26T04:15:00.657Z,990.19
2016-04-26T04:16:00.629Z,990.18
2016-04-26T04:17:00.601Z,990.17
2016-04-26T04:18:00.572Z,990.2
2016-04-26T04:19:00.543Z,990.13
2016-04-26T04:20:00.500Z,990.13
2016-04-26T04:21:00.470Z,990.16
2016-04-26T04:22:00.442Z,990.13
2016-04-26T04:23:00.414Z,990.12
2016-04-26T04:24:00.386Z,990.13
2016-04-26T04:25:00.341Z,990.13
2016-04-26T04:26:00.312Z,990.2
2016-04-26T04:27:00.284Z,990.17
2016-04-26T04:28:00.255Z,990.17
2016-04-26T04:29:00.211Z,990.2
2016-04-26T04:30:00.182Z,990.19
2016-04-26T04:31:00.155Z,990.26
2016-04-26T04:32:00.126Z,990.2
2016-04-26T04:33:00.097Z,990.2
2016-04-26T04:34:00.053Z,990.22
2016-04-26T04:35:00.024Z,990.26
2016-04-26T04:35:59.996Z,990.21
2016-04-26T04:36:59.966Z,990.17
2016-04-26T04:37:59.938Z,990.17
2016-04-26T04:38:59.894Z,990.11
2016-04-26T04:39:59.866Z,990.12
2016-04-26T04:40:59.837Z,990.1
2016-04-26T04:41:59.809Z,990.1
2016-04-26T04:42:59.780Z,990.09
2016-04-26T04:43:59.751Z,990.08
2016-04-26T04:44:59.707Z,990.06
2016-04-26T04:45:59.679Z,990.05
2016-04-26T04:46:59.650Z,990.06
2016-04-26T04:47:59.621Z,990.02
2016-04-26T04:48:59.593Z,990.01
2016-04-26T04:49:59.564Z,990.01
2016-04-26T04:50:59.520Z,989.99
2016-04-26T04:51:59.492Z,989.97
2016-04-26T04:52:59.463Z,990.04
2016-04-26T04:53:59.434Z,989.96
2016-04-26T04:54:59.406Z,989.97
2016-04-26T04:55:59.377Z,989.93
2016-04-26T04:56:59.349Z,989.94
2016-04-26T04:57:59.320Z,989.89
2016-04-26T04:58:59.276Z,989.89
2016-04-26T04:59:59.247Z,989.85
2016-04-26T05:00:59.219Z,989.77
2016-04-26T05:01:59.191Z,989.83
2016-04-26T05:02:59.161Z,989.81
2016-04-26T05:03:59.133Z,989.82
2016-04-26T05:04:59.089Z,989.8
2016-04-26T05:05:59.060Z,989.83
2016-04-26T05:06:59.033Z,989.86
2016-04-26T05:07:59.003Z,989.8
2016-04-26T05:08:58.975Z,989.8
2016-04-26T05:09:58.947Z,989.8
2016-04-26T05:10:58.918Z,989.85
2016-04-26T05:11:58.874Z,989.82
2016-04-26T05:12:58.845Z,989.8
2016-04-26T05:13:58.816Z,989.77
2016-04-26T05:14:58.788Z,989.81
2016-04-26T05:15:58.759Z,989.77
2016-04-26T05:16:59.012Z,989.79
2016-04-26T05:17:58.701Z,989.73
2016-04-26T05:18:58.674Z,989.72
2016-04-26T05:19:58.646Z,989.7
2016-04-26T05:20:58.617Z,989.77
2016-04-26T05:21:58.588Z,989.68
2016-04-26T05:22:58.544Z,989.7
2016-04-26T05:23:58.531Z,989.7
2016-04-26T05:24:58.503Z,989.64
2016-04-26T05:25:58.458Z,989.65
2016-04-26T05:26:58.430Z,989.65
2016-04-26T05:27:58.401Z,989.62
2016-04-26T05:28:58.404Z,989.62
2016-04-26T05:29:58.344Z,989.62
2016-04-26T05:30:58.316Z,989.6
2016-04-26T05:31:58.287Z,989.59
2016-04-26T05:32:58.258Z,989.55
2016-04-26T05:33:58.214Z,989.55
2016-04-26T05:34:58.186Z,989.48
2016-04-26T05:35:58.157Z,989.53
2016-04-26T05:36:58.128Z,989.5
2016-04-26T05:37:58.099Z,989.52
2016-04-26T05:38:58.071Z,989.49
2016-04-26T05:39:58.043Z,989.46
2016-04-26T05:40:58.013Z,989.43
2016-04-26T05:41:57.985Z,989.44
2016-04-26T05:42:57.957Z,989.47
2016-04-26T05:43:57.929Z,989.5
2016-04-26T05:44:57.899Z,989.52
2016-04-26T05:45:57.871Z,989.43
2016-04-26T05:46:57.842Z,989.43
2016-04-26T05:47:57.986Z,989.46
2016-04-26T05:48:57.785Z,989.52
2016-04-26T05:49:57.757Z,989.55
2016-04-26T05:50:57.713Z,989.49
2016-04-26T05:51:57.700Z,989.45
2016-04-26T05:52:57.671Z,989.45
2016-04-26T05:53:57.643Z,989.47
2016-04-26T05:54:57.598Z,989.44
2016-04-26T05:55:57.570Z,989.4
2016-04-26T05:56:57.546Z,989.42
2016-04-26T05:57:57.615Z,989.37
2016-04-26T05:58:57.493Z,989.39
2016-04-26T05:59:57.465Z,989.37
2016-04-26T06:00:57.936Z,989.35
2016-04-26T06:01:57.402Z,989.35
2016-04-26T06:02:57.372Z,989.37
2016-04-26T06:03:57.344Z,989.36
2016-04-26T06:04:57.317Z,989.38
2016-04-26T06:05:57.288Z,989.36
2016-04-26T06:06:57.259Z,989.42
2016-04-26T06:07:57.230Z,989.43
2016-04-26T06:08:57.202Z,989.42
2016-04-26T06:09:57.173Z,989.38
2016-04-26T06:10:57.144Z,989.3
2016-04-26T06:11:57.116Z,989.25
2016-04-26T06:12:57.087Z,989.23
2016-04-26T06:13:57.059Z,989.26
2016-04-26T06:14:57.030Z,989.28
2016-04-26T06:15:57.002Z,989.32
2016-04-26T06:16:56.974Z,989.26
2016-04-26T06:17:56.945Z,989.29
2016-04-26T06:18:56.916Z,989.25
2016-04-26T06:19:56.887Z,989.23
2016-04-26T06:20:56.859Z,989.2
2016-04-26T06:21:56.831Z,989.19
2016-04-26T06:22:56.790Z,989.17
2016-04-26T06:23:56.761Z,989.18
2016-04-26T06:24:56.732Z,989.3
2016-04-26T06:25:56.704Z,989.24
2016-04-26T06:26:56.675Z,989.16
2016-04-26T06:27:56.678Z,989.2
2016-04-26T06:28:57.962Z,989.27
2016-04-26T06:29:56.605Z,989.32
2016-04-26T06:30:56.577Z,989.29
2016-04-26T06:31:56.548Z,989.25
2016-04-26T06:32:56.520Z,989.3
2016-04-26T06:33:56.475Z,989.27
2016-04-26T06:34:56.447Z,989.21
2016-04-26T06:35:56.418Z,989.25
2016-04-26T06:36:56.389Z,989.31
2016-04-26T06:37:56.361Z,989.31
2016-04-26T06:38:56.332Z,989.24
2016-04-26T06:39:56.304Z,989.28
2016-04-26T06:40:56.275Z,989.19
2016-04-26T06:41:56.246Z,989.24
2016-04-26T06:42:56.203Z,989.26
2016-04-26T06:43:56.189Z,989.26
2016-04-26T06:44:56.145Z,989.18
2016-04-26T06:45:56.117Z,989.26
2016-04-26T06:46:56.135Z,989.2
2016-04-26T06:47:56.060Z,989.2
2016-04-26T06:48:56.030Z,989.2
2016-04-26T06:49:56.002Z,989.22
2016-04-26T06:50:55.974Z,989.22
2016-04-26T06:51:55.945Z,989.15
2016-04-26T06:52:55.916Z,989.17
2016-04-26T06:53:55.904Z,989.22
2016-04-26T06:54:55.860Z,989.19
2016-04-26T06:55:55.831Z,989.24
2016-04-26T06:56:55.802Z,989.26
2016-04-26T06:57:55.773Z,989.23
2016-04-26T06:58:55.745Z,989.27
2016-04-26T06:59:55.701Z,989.22
2016-04-26T07:00:55.672Z,989.22
2016-04-26T07:01:55.659Z,989.24
2016-04-26T07:02:55.897Z,989.24
2016-04-26T07:03:55.587Z,989.22
2016-04-26T07:04:55.559Z,989.23
2016-04-26T07:05:55.531Z,989.26
2016-04-26T07:06:55.501Z,989.22
2016-04-26T07:07:55.473Z,989.23
2016-04-26T07:08:55.445Z,989.24
2016-04-26T07:09:55.416Z,989.27
2016-04-26T07:10:55.387Z,989.19
2016-04-26T07:11:55.358Z,989.19
2016-04-26T07:12:55.330Z,989.22
2016-04-26T07:13:55.286Z,989.15
2016-04-26T07:14:55.258Z,989.14
2016-04-26T07:15:55.244Z,989.18
2016-04-26T07:16:55.200Z,989.11
2016-04-26T07:17:55.234Z,989.17
2016-04-26T07:18:55.144Z,989.16
2016-04-26T07:19:55.114Z,989.21
2016-04-26T07:20:55.086Z,989.23
2016-04-26T07:21:55.057Z,989.24
2016-04-26T07:22:55.034Z,989.2
2016-04-26T07:23:54.989Z,989.26
2016-04-26T07:24:54.960Z,989.16
2016-04-26T07:25:54.932Z,989.21
2016-04-26T07:26:54.904Z,989.12
2016-04-26T07:27:54.876Z,989.12
2016-04-26T07:28:54.846Z,989.14
2016-04-26T07:29:54.818Z,989.17
2016-04-26T07:30:54.789Z,989.14
2016-04-26T07:31:54.761Z,989.15
2016-04-26T07:32:55.389Z,989.13
2016-04-26T07:33:54.688Z,989.21
2016-04-26T07:34:54.676Z,989.15
2016-04-26T07:35:54.630Z,989.17
2016-04-26T07:36:54.602Z,989.12
2016-04-26T07:37:54.575Z,989.25
2016-04-26T07:38:54.545Z,989.16
2016-04-26T07:39:54.517Z,989.13
2016-04-26T07:40:54.488Z,989.18
2016-04-26T07:41:54.444Z,989.17
2016-04-26T07:42:54.416Z,989.18
2016-04-26T07:43:54.386Z,989.21
2016-04-26T07:44:54.358Z,989.21
2016-04-26T07:45:54.626Z,989.24
2016-04-26T07:46:54.302Z,989.25
2016-04-26T07:47:54.507Z,989.22
2016-04-26T07:48:54.244Z,989.3
2016-04-26T07:49:54.216Z,989.25
2016-04-26T07:50:54.187Z,989.28
2016-04-26T07:51:54.158Z,989.3
2016-04-26T07:52:54.130Z,989.24
2016-04-26T07:53:54.101Z,989.24
2016-04-26T07:54:54.073Z,989.31
2016-04-26T07:55:54.028Z,989.3
2016-04-26T07:56:54.001Z,989.31
2016-04-26T07:57:53.972Z,989.3
2016-04-26T07:58:53.943Z,989.29
2016-04-26T07:59:53.915Z,989.32
2016-04-26T08:00:53.886Z,989.24
2016-04-26T08:01:53.856Z,989.45
2016-04-26T08:02:53.829Z,989.37
2016-04-26T08:03:53.800Z,989.35
2016-04-26T08:04:53.772Z,989.34
2016-04-26T08:05:53.742Z,989.45
2016-04-26T08:06:53.714Z,989.3
2016-04-26T08:07:53.701Z,989.33
2016-04-26T08:08:53.658Z,989.33
2016-04-26T08:09:53.629Z,989.28
2016-04-26T08:10:53.600Z,989.42
2016-04-26T08:11:53.572Z,989.37
2016-04-26T08:12:53.544Z,989.32
2016-04-26T08:13:53.514Z,989.32
2016-04-26T08:14:53.486Z,989.37
2016-04-26T08:15:53.457Z,989.35
2016-04-26T08:16:53.429Z,989.37
2016-04-26T08:17:53.400Z,989.35
2016-04-26T08:18:53.372Z,989.26
2016-04-26T08:19:53.344Z,989.28
2016-04-26T08:20:53.315Z,989.3
2016-04-26T08:21:53.286Z,989.29
2016-04-26T08:22:53.258Z,989.18
2016-04-26T08:23:53.229Z,989.23
2016-04-26T08:24:53.201Z,989.28
2016-04-26T08:25:53.171Z,989.28
2016-04-26T08:26:53.143Z,989.23
2016-04-26T08:27:53.115Z,989.2
2016-04-26T08:28:53.092Z,989.31
2016-04-26T08:29:53.067Z,989.22
2016-04-26T08:30:53.080Z,989.26
2016-04-26T08:31:53.094Z,989.25
2016-04-26T08:32:53.106Z,989.38
2016-04-26T08:33:53.386Z,989.34
2016-04-26T08:34:53.132Z,989.33
2016-04-26T08:35:53.118Z,989.39
2016-04-26T08:36:53.104Z,989.36
2016-04-26T08:37:53.091Z,989.42
2016-04-26T08:38:53.078Z,989.49
2016-04-26T08:39:53.047Z,989.49
2016-04-26T08:40:53.031Z,989.43
2016-04-26T08:41:53.009Z,989.35
2016-04-26T08:42:53.002Z,989.31
2016-04-26T08:43:52.977Z,989.41
2016-04-26T08:44:52.955Z,989.36
2016-04-26T08:45:52.932Z,989.46
2016-04-26T08:46:52.905Z,989.29
2016-04-26T08:47:54.554Z,989.32
2016-04-26T08:48:53.289Z,989.29
2016-04-26T08:49:52.840Z,989.34
2016-04-26T08:50:52.814Z,989.26
2016-04-26T08:51:52.802Z,989.34
2016-04-26T08:52:52.758Z,989.34
2016-04-26T08:53:52.746Z,989.32
2016-04-26T08:54:52.719Z,989.33
2016-04-26T08:55:52.691Z,989.37
2016-04-26T08:56:52.662Z,989.35
2016-04-26T08:57:52.650Z,989.32
2016-04-26T08:58:52.622Z,989.34
2016-04-26T08:59:52.594Z,989.23
2016-04-26T09:00:52.565Z,989.24
2016-04-26T09:01:52.537Z,989.29
2016-04-26T09:02:53.148Z,989.26
2016-04-26T09:03:52.840Z,989.32
2016-04-26T09:04:52.467Z,989.28
2016-04-26T09:05:52.437Z,989.32
2016-04-26T09:06:52.410Z,989.31
2016-04-26T09:07:52.381Z,989.3
2016-04-26T09:08:52.353Z,989.28
2016-04-26T09:09:52.339Z,989.22
2016-04-26T09:10:52.311Z,989.36
2016-04-26T09:11:52.282Z,989.31
2016-04-26T09:12:52.254Z,989.28
2016-04-26T09:13:52.225Z,989.25
2016-04-26T09:14:52.212Z,989.21
2016-04-26T09:15:52.183Z,989.23
2016-04-26T09:16:52.155Z,989.19
2016-04-26T09:17:52.127Z,989.25
2016-04-26T09:18:52.098Z,989.23
2016-04-26T09:19:52.085Z,989.21
2016-04-26T09:20:52.056Z,989.18
2016-04-26T09:21:52.028Z,989.19
2016-04-26T09:22:52.000Z,989.26
2016-04-26T09:23:51.971Z,989.17
2016-04-26T09:24:51.941Z,989.23
2016-04-26T09:25:51.914Z,989.24
2016-04-26T09:26:51.885Z,989.18
2016-04-26T09:27:51.872Z,989.15
2016-04-26T09:28:51.844Z,989.14
2016-04-26T09:29:51.815Z,989.11
2016-04-26T09:30:51.787Z,989.18
2016-04-26T09:31:51.773Z,989.15
2016-04-26T09:32:51.745Z,989.19
2016-04-26T09:33:51.716Z,989.11
2016-04-26T09:34:51.688Z,989.09
2016-04-26T09:35:51.675Z,989.03
2016-04-26T09:36:51.647Z,989.07
2016-04-26T09:37:51.618Z,989
2016-04-26T09:38:51.604Z,989.1
2016-04-26T09:39:51.576Z,989.12
2016-04-26T09:40:51.548Z,989.12
2016-04-26T09:41:51.535Z,988.98
2016-04-26T09:42:51.490Z,989.07
2016-04-26T09:43:51.462Z,989.07
2016-04-26T09:44:51.450Z,989.1
2016-04-26T09:45:51.420Z,989.06
2016-04-26T09:46:51.392Z,989.04
2016-04-26T09:47:51.363Z,988.99
2016-04-26T09:48:51.569Z,988.99
2016-04-26T09:49:51.322Z,989
2016-04-26T09:50:51.294Z,988.86
2016-04-26T09:51:51.265Z,988.82
2016-04-26T09:52:51.236Z,988.81
2016-04-26T09:53:51.224Z,988.83
2016-04-26T09:54:51.195Z,988.75
2016-04-26T09:55:51.167Z,988.9
2016-04-26T09:56:51.137Z,988.84
2016-04-26T09:57:51.109Z,988.8
2016-04-26T09:58:51.080Z,988.8
2016-04-26T09:59:51.068Z,988.8
2016-04-26T10:00:51.039Z,988.8
2016-04-26T10:01:51.010Z,988.73
2016-04-26T10:02:50.982Z,988.72
2016-04-26T10:03:50.954Z,988.78
2016-04-26T10:04:50.924Z,988.76
2016-04-26T10:05:50.912Z,988.87
2016-04-26T10:06:50.868Z,988.81
2016-04-26T10:07:50.840Z,988.81
2016-04-26T10:08:50.810Z,988.78
2016-04-26T10:09:50.782Z,988.83
2016-04-26T10:10:50.769Z,988.83
2016-04-26T10:11:50.741Z,988.85
2016-04-26T10:12:50.712Z,988.82
2016-04-26T10:13:50.684Z,988.85
2016-04-26T10:14:50.670Z,988.78
2016-04-26T10:15:50.626Z,988.81
2016-04-26T10:16:50.597Z,988.75
2016-04-26T10:17:50.570Z,988.82
2016-04-26T10:18:50.822Z,988.69
2016-04-26T10:19:50.512Z,988.7
2016-04-26T10:20:50.484Z,988.69
2016-04-26T10:21:50.455Z,988.69
2016-04-26T10:22:50.426Z,988.68
2016-04-26T10:23:50.414Z,988.69
2016-04-26T10:24:50.386Z,988.62
2016-04-26T10:25:50.355Z,988.63
2016-04-26T10:26:50.328Z,988.64
2016-04-26T10:27:50.300Z,988.63
2016-04-26T10:28:50.271Z,988.64
2016-04-26T10:29:50.242Z,988.6
2016-04-26T10:30:50.229Z,988.67
2016-04-26T10:31:50.186Z,988.66
2016-04-26T10:32:50.157Z,988.63
2016-04-26T10:33:50.394Z,988.64
2016-04-26T10:34:50.100Z,988.69
2016-04-26T10:35:50.071Z,988.72
2016-04-26T10:36:50.042Z,988.77
2016-04-26T10:37:50.014Z,988.79
2016-04-26T10:38:49.984Z,988.83
2016-04-26T10:39:49.973Z,988.85
2016-04-26T10:40:49.943Z,988.87
2016-04-26T10:41:49.899Z,988.87
2016-04-26T10:42:49.886Z,988.84
2016-04-26T10:43:49.858Z,988.94
2016-04-26T10:44:49.829Z,988.95
2016-04-26T10:45:49.801Z,988.98
2016-04-26T10:46:49.772Z,989.09
2016-04-26T10:47:49.744Z,989.16
2016-04-26T10:48:49.715Z,989.08
2016-04-26T10:49:49.686Z,989.05
2016-04-26T10:50:49.674Z,989.11
2016-04-26T10:51:49.630Z,989.12
2016-04-26T10:52:49.600Z,989.02
2016-04-26T10:53:49.572Z,989.03
2016-04-26T10:54:49.544Z,988.98
2016-04-26T10:55:49.530Z,989.03
2016-04-26T10:56:49.487Z,989.01
2016-04-26T10:57:49.474Z,988.92
2016-04-26T10:58:49.430Z,989
2016-04-26T10:59:49.416Z,988.98
2016-04-26T11:00:49.388Z,988.9
2016-04-26T11:01:49.360Z,988.86
2016-04-26T11:02:49.331Z,988.76
2016-04-26T11:03:52.413Z,988.86
2016-04-26T11:04:49.274Z,988.85
2016-04-26T11:05:49.245Z,988.88
2016-04-26T11:06:49.233Z,988.81
2016-04-26T11:07:49.204Z,988.86
2016-04-26T11:08:49.176Z,988.9
2016-04-26T11:09:49.147Z,988.82
2016-04-26T11:10:49.118Z,988.79
2016-04-26T11:11:49.090Z,988.82
2016-04-26T11:12:49.061Z,988.86
2016-04-26T11:13:49.033Z,988.83
2016-04-26T11:14:49.004Z,988.85
2016-04-26T11:15:48.991Z,988.84
2016-04-26T11:16:48.978Z,988.78
2016-04-26T11:17:48.934Z,988.81
2016-04-26T11:18:48.906Z,988.85
2016-04-26T11:19:48.876Z,988.85
2016-04-26T11:20:48.848Z,989.02
2016-04-26T11:21:48.836Z,988.89
2016-04-26T11:22:48.806Z,988.93
2016-04-26T11:23:48.778Z,988.9
2016-04-26T11:24:48.750Z,988.92
2016-04-26T11:25:48.737Z,988.93
2016-04-26T11:26:48.708Z,988.84
2016-04-26T11:27:48.680Z,988.89
2016-04-26T11:28:48.651Z,988.98
2016-04-26T11:29:48.623Z,988.95
2016-04-26T11:30:48.610Z,988.91
2016-04-26T11:31:48.581Z,988.91
2016-04-26T11:32:48.552Z,988.97
2016-04-26T11:33:48.524Z,989.05
2016-04-26T11:34:48.496Z,989
2016-04-26T11:35:48.467Z,988.98
2016-04-26T11:36:48.438Z,989.04
2016-04-26T11:37:48.424Z,989.09
2016-04-26T11:38:48.413Z,989.11
2016-04-26T11:39:48.368Z,989.07
2016-04-26T11:40:48.340Z,989.05
2016-04-26T11:41:48.311Z,989.04
2016-04-26T11:42:48.298Z,988.97
2016-04-26T11:43:48.269Z,988.96
2016-04-26T11:44:48.365Z,988.93
2016-04-26T11:45:48.213Z,988.92
2016-04-26T11:46:48.199Z,988.82
2016-04-26T11:47:48.171Z,988.81
2016-04-26T11:48:48.190Z,988.86
2016-04-26T11:49:48.114Z,988.83
2016-04-26T11:50:48.101Z,988.73
2016-04-26T11:51:48.072Z,988.83
2016-04-26T11:52:48.044Z,988.77
2016-04-26T11:53:48.015Z,988.85
2016-04-26T11:54:47.987Z,988.87
2016-04-26T11:55:47.959Z,988.84
2016-04-26T11:56:47.945Z,988.93
2016-04-26T11:57:47.916Z,988.94
2016-04-26T11:58:47.888Z,988.88
2016-04-26T11:59:47.875Z,988.95
2016-04-26T12:00:47.846Z,989
2016-04-26T12:01:47.818Z,988.98
2016-04-26T12:02:47.789Z,989.03
2016-04-26T12:03:47.761Z,988.97
2016-04-26T12:04:47.747Z,988.96
2016-04-26T12:05:47.719Z,988.95
2016-04-26T12:06:47.691Z,988.97
2016-04-26T12:07:47.678Z,988.98
2016-04-26T12:08:47.633Z,988.94
2016-04-26T12:09:47.621Z,989
2016-04-26T12:10:47.592Z,988.98
2016-04-26T12:11:47.564Z,989.06
2016-04-26T12:12:47.535Z,989.01
2016-04-26T12:13:47.506Z,989.04
2016-04-26T12:14:47.493Z,988.98
2016-04-26T12:15:47.465Z,988.98
2016-04-26T12:16:47.451Z,988.87
2016-04-26T12:17:47.408Z,988.9
2016-04-26T12:18:47.395Z,988.87
2016-04-26T12:19:47.367Z,988.79
2016-04-26T12:20:47.337Z,988.69
2016-04-26T12:21:47.309Z,988.75
2016-04-26T12:22:47.280Z,988.71
2016-04-26T12:23:47.267Z,988.71
2016-04-26T12:24:47.223Z,988.72
2016-04-26T12:25:47.211Z,988.71
2016-04-26T12:26:47.181Z,988.74
2016-04-26T12:27:47.153Z,988.8
2016-04-26T12:28:47.125Z,988.78
2016-04-26T12:29:47.097Z,988.8
2016-04-26T12:30:47.083Z,988.79